Karos, South Africa
Current Conditions -  °F | °C
As of 6:00 PM on Friday 31 Oct 2014 (Local Time) from FAUP Reporting Station
Scattered Clouds Scattered Clouds  
Wind Chill: 86°   Ceiling: Unl
Heat Index: 86°   Visibility: 6mi
Dew Point: 32°   Wind: 10mph
Humidity: 14%   Direction: 190°S
Pressure: 29.83"   Gusts: NA
Location:  28.42°S, 21.57°E
Report Text: FAUP 311600Z 19009KT 9999 FEW050TCU SCT080 30/M00 Q1010 NOSIG
Loading
Personal Weather Stations






























Interactive Weather Map
Tropical Storm Tracking
New forecast layout! Learn more

10-Day Weather Forecast

Advertisements
Track Severe Weather on mobile